Time;durP1;ratioP1;P1;durP2;ratioP2;P2;SDS_P1;SDS_P2;PMS_P1;PMS_P2;Temp;Humidity;BMP_temperature;BMP_pressure;BME280_temperature;BME280_humidity;BME280_pressure;Samples;Min_cycle;Max_cycle;Signal;HPM_P1;HPM_P2
2021/09/11 00:00:21;;;;;;;4.13;3.72;;;22.20;78.70;;;;;;5113997;28;20112;-50
2021/09/11 00:02:48;;;;;;;4.75;4.35;;;22.20;78.70;;;;;;5132513;28;20035;-47
2021/09/11 00:05:15;;;;;;;4.28;3.88;;;22.20;78.70;;;;;;5132116;28;20050;-45
2021/09/11 00:07:41;;;;;;;4.47;4.07;;;22.30;78.80;;;;;;5111926;28;20040;-48
2021/09/11 00:10:09;;;;;;;4.45;4.07;;;22.20;78.60;;;;;;5094265;28;20047;-47
2021/09/11 00:12:36;;;;;;;4.80;4.40;;;22.20;78.60;;;;;;5133884;27;20047;-51
2021/09/11 00:15:07;;;;;;;4.38;3.97;;;22.30;78.70;;;;;;5136094;27;20105;-46
2021/09/11 00:17:33;;;;;;;4.90;4.35;;;22.20;78.60;;;;;;5136350;27;20118;-49
2021/09/11 00:19:58;;;;;;;4.47;4.07;;;22.20;78.70;;;;;;5135963;27;20150;-48
2021/09/11 00:22:24;;;;;;;3.80;3.50;;;22.20;78.60;;;;;;5135885;27;20043;-47
2021/09/11 00:24:50;;;;;;;4.40;4.00;;;22.20;78.70;;;;;;5136419;27;20050;-48
2021/09/11 00:27:15;;;;;;;4.78;4.22;;;22.20;78.60;;;;;;5135130;27;20066;-48
2021/09/11 00:29:41;;;;;;;4.68;4.28;;;22.20;78.70;;;;;;5136399;27;20043;-50
2021/09/11 00:32:07;;;;;;;4.25;3.85;;;22.20;78.70;;;;;;5134332;27;20475;-49
2021/09/11 00:34:33;;;;;;;4.47;4.07;;;22.20;78.60;;;;;;5136253;27;20039;-47
2021/09/11 00:36:59;;;;;;;4.40;4.00;;;22.20;78.60;;;;;;5135482;27;20092;-47
2021/09/11 00:39:24;;;;;;;4.32;3.92;;;22.20;78.70;;;;;;5135579;27;20455;-44
2021/09/11 00:41:51;;;;;;;4.35;3.95;;;22.20;78.60;;;;;;5135876;27;20492;-46
2021/09/11 00:44:17;;;;;;;4.40;4.00;;;22.20;78.60;;;;;;5135937;27;20043;-49
2021/09/11 00:46:43;;;;;;;4.47;4.07;;;22.20;78.70;;;;;;5136467;27;20481;-47
2021/09/11 00:49:08;;;;;;;4.20;3.80;;;22.20;78.70;;;;;;5136011;27;20114;-48
2021/09/11 00:51:34;;;;;;;4.47;4.07;;;22.20;78.60;;;;;;5135433;27;20043;-51
2021/09/11 00:54:01;;;;;;;4.30;3.90;;;22.20;78.70;;;;;;5135594;27;20046;-45
2021/09/11 00:56:29;;;;;;;4.10;3.70;;;22.20;78.60;;;;;;5135503;27;20039;-46
2021/09/11 00:58:55;;;;;;;4.05;3.65;;;22.20;78.70;;;;;;5123479;27;20079;-49
2021/09/11 01:01:21;;;;;;;3.70;3.40;;;22.20;78.70;;;;;;5135954;27;20067;-50
2021/09/11 01:03:46;;;;;;;4.20;3.70;;;22.20;78.60;;;;;;5135389;27;20051;-51
2021/09/11 01:06:13;;;;;;;4.22;3.83;;;22.20;78.60;;;;;;5135423;27;20328;-48
2021/09/11 01:08:42;;;;;;;4.40;4.00;;;22.20;78.70;;;;;;5135481;27;20031;-51
2021/09/11 01:11:08;;;;;;;4.38;3.97;;;22.20;78.60;;;;;;5135133;27;20039;-47
2021/09/11 01:13:34;;;;;;;4.35;3.95;;;22.20;78.60;;;;;;5134403;27;20080;-48
2021/09/11 01:16:00;;;;;;;4.20;3.88;;;22.20;78.60;;;;;;5135102;27;20035;-50
2021/09/11 01:18:26;;;;;;;3.72;3.42;;;22.20;78.60;;;;;;5135332;27;20062;-50
2021/09/11 01:20:53;;;;;;;4.43;4.03;;;22.20;78.60;;;;;;5134483;27;20066;-47
2021/09/11 01:23:19;;;;;;;4.13;3.72;;;22.10;78.50;;;;;;5135057;27;20043;-50
2021/09/11 01:25:46;;;;;;;4.10;3.78;;;22.20;78.60;;;;;;5134610;27;20355;-50
2021/09/11 01:28:11;;;;;;;4.00;3.58;;;22.20;78.60;;;;;;5134863;27;20039;-50
2021/09/11 01:30:37;;;;;;;3.92;3.55;;;22.20;78.60;;;;;;5134997;27;20391;-49
2021/09/11 01:33:03;;;;;;;4.32;3.92;;;22.20;78.60;;;;;;5134607;27;20233;-50
2021/09/11 01:35:28;;;;;;;4.38;3.90;;;22.20;78.60;;;;;;5134660;27;20395;-52
2021/09/11 01:37:54;;;;;;;4.28;3.88;;;22.20;78.60;;;;;;5134364;27;20479;-45
2021/09/11 01:40:21;;;;;;;3.88;3.58;;;22.20;78.60;;;;;;5134200;27;20043;-49
2021/09/11 01:42:46;;;;;;;4.13;3.72;;;22.20;78.60;;;;;;5133989;27;20047;-47
2021/09/11 01:45:14;;;;;;;4.00;3.60;;;22.20;78.60;;;;;;5115845;27;20126;-47
2021/09/11 01:47:41;;;;;;;3.90;3.55;;;22.20;78.60;;;;;;5134972;27;20043;-48
2021/09/11 01:50:09;;;;;;;4.03;3.63;;;22.20;78.60;;;;;;5115587;27;20043;-49
2021/09/11 01:52:35;;;;;;;3.67;3.38;;;22.20;78.60;;;;;;5134361;27;20081;-51
2021/09/11 01:55:01;;;;;;;4.05;3.42;;;22.20;78.60;;;;;;5115223;27;20114;-51
2021/09/11 01:57:27;;;;;;;4.00;3.60;;;22.20;78.60;;;;;;5134149;27;20414;-48
2021/09/11 01:59:53;;;;;;;3.45;3.15;;;22.20;78.60;;;;;;5116028;27;20047;-50
2021/09/11 02:02:18;;;;;;;4.13;3.72;;;22.20;78.60;;;;;;5115705;27;20054;-48
2021/09/11 02:04:44;;;;;;;3.80;3.40;;;22.20;78.60;;;;;;5134211;27;20039;-50
2021/09/11 02:07:10;;;;;;;3.95;3.60;;;22.20;78.60;;;;;;5133939;27;20400;-48
2021/09/11 02:09:36;;;;;;;3.80;3.45;;;22.20;78.60;;;;;;5134457;27;20096;-50
2021/09/11 02:12:02;;;;;;;3.70;3.40;;;22.20;78.60;;;;;;5133818;27;20051;-46
2021/09/11 02:14:28;;;;;;;4.10;3.70;;;22.20;78.60;;;;;;5133714;27;20043;-46
2021/09/11 02:16:54;;;;;;;3.80;3.45;;;22.20;78.60;;;;;;5133575;27;20038;-47
2021/09/11 02:19:19;;;;;;;3.40;3.10;;;22.20;78.60;;;;;;5133576;27;20087;-50
2021/09/11 02:21:45;;;;;;;3.67;3.38;;;22.20;78.60;;;;;;5133353;27;20051;-48
2021/09/11 02:24:11;;;;;;;3.50;3.20;;;22.20;78.60;;;;;;5133795;27;20047;-47
2021/09/11 02:26:36;;;;;;;3.30;3.00;;;22.20;78.60;;;;;;5133479;27;20475;-47
2021/09/11 02:29:03;;;;;;;3.60;3.30;;;22.10;78.50;;;;;;5133775;27;20100;-50
2021/09/11 02:31:28;;;;;;;3.70;3.40;;;22.20;78.50;;;;;;5133136;27;20035;-45
2021/09/11 02:33:54;;;;;;;3.60;3.30;;;22.20;78.60;;;;;;5133161;27;20527;-45
2021/09/11 02:36:20;;;;;;;3.85;3.45;;;22.20;78.60;;;;;;5132973;27;20035;-47
2021/09/11 02:38:46;;;;;;;3.55;3.25;;;22.20;78.60;;;;;;5133311;27;20049;-49
2021/09/11 02:41:12;;;;;;;3.40;3.10;;;22.20;78.50;;;;;;5133344;27;20114;-49
2021/09/11 02:43:38;;;;;;;3.63;3.33;;;22.20;78.50;;;;;;5133617;27;20475;-46
2021/09/11 02:46:04;;;;;;;3.20;2.90;;;22.10;78.50;;;;;;5133465;27;20050;-47
2021/09/11 02:48:30;;;;;;;3.78;3.47;;;22.10;78.50;;;;;;5133617;27;20394;-45
2021/09/11 02:50:56;;;;;;;3.05;2.83;;;22.10;78.50;;;;;;5133644;27;20043;-47
2021/09/11 02:53:22;;;;;;;3.13;2.90;;;22.10;78.50;;;;;;5133572;27;20104;-50
2021/09/11 02:55:48;;;;;;;3.85;3.53;;;22.10;78.50;;;;;;5133895;27;20070;-47
2021/09/11 02:58:13;;;;;;;3.45;3.15;;;22.10;78.50;;;;;;5133325;27;20031;-46
2021/09/11 03:00:39;;;;;;;3.33;2.88;;;22.20;78.60;;;;;;5133599;27;20038;-48
2021/09/11 03:03:05;;;;;;;3.58;3.28;;;22.10;78.50;;;;;;5133887;27;20043;-44
2021/09/11 03:05:31;;;;;;;3.28;2.97;;;22.20;78.50;;;;;;5133727;27;20042;-48
2021/09/11 03:07:56;;;;;;;3.47;3.17;;;22.20;78.50;;;;;;5114390;27;20039;-47
2021/09/11 03:10:22;;;;;;;3.33;3.03;;;22.20;78.50;;;;;;5132849;27;20066;-46
2021/09/11 03:12:49;;;;;;;3.47;3.17;;;22.20;78.50;;;;;;5133163;27;20471;-48
2021/09/11 03:15:15;;;;;;;3.40;3.10;;;22.10;78.50;;;;;;5133617;27;20039;-50
2021/09/11 03:17:41;;;;;;;3.78;2.85;;;22.10;78.50;;;;;;5132846;27;20061;-51
2021/09/11 03:20:07;;;;;;;3.35;3.05;;;22.20;78.50;;;;;;5132448;27;20094;-47
2021/09/11 03:22:33;;;;;;;3.65;3.30;;;22.20;78.50;;;;;;5132955;27;20047;-49
2021/09/11 03:24:58;;;;;;;3.40;3.10;;;22.20;78.50;;;;;;5133251;27;20123;-48
2021/09/11 03:27:24;;;;;;;3.20;2.90;;;22.20;78.50;;;;;;5132931;28;20479;-49
2021/09/11 03:29:50;;;;;;;4.20;3.50;;;22.10;78.50;;;;;;5132821;28;20047;-48
2021/09/11 03:32:15;;;;;;;3.53;3.22;;;22.10;78.50;;;;;;5132079;28;20077;-47
2021/09/11 03:34:41;;;;;;;3.65;3.35;;;22.20;78.50;;;;;;5132959;28;20395;-50
2021/09/11 03:37:07;;;;;;;3.28;2.97;;;22.10;78.50;;;;;;5133032;28;20063;-51
2021/09/11 03:39:33;;;;;;;3.35;3.05;;;22.10;78.50;;;;;;5133309;28;20372;-51
2021/09/11 03:41:58;;;;;;;3.45;3.15;;;22.10;78.50;;;;;;5132245;28;20067;-50
2021/09/11 03:44:24;;;;;;;3.50;3.20;;;22.20;78.50;;;;;;5132992;28;20042;-48
2021/09/11 03:46:49;;;;;;;3.53;3.22;;;22.10;78.50;;;;;;5132887;27;20395;-51
2021/09/11 03:49:15;;;;;;;3.40;3.10;;;22.10;78.50;;;;;;5136595;27;20043;-52
2021/09/11 03:51:41;;;;;;;3.70;3.40;;;22.10;78.50;;;;;;5136841;27;20169;-49
2021/09/11 03:54:06;;;;;;;3.40;3.10;;;22.10;78.50;;;;;;5137183;27;20050;-48
2021/09/11 03:56:32;;;;;;;3.17;2.88;;;22.10;78.50;;;;;;5135545;27;20444;-50
2021/09/11 03:58:57;;;;;;;3.45;3.15;;;22.10;78.50;;;;;;5136892;27;20032;-48
2021/09/11 04:01:23;;;;;;;3.20;2.97;;;22.10;78.50;;;;;;5136868;27;20467;-50
2021/09/11 04:03:49;;;;;;;4.00;3.60;;;22.10;78.50;;;;;;5136126;27;20046;-48
2021/09/11 04:06:14;;;;;;;3.78;3.40;;;22.10;78.50;;;;;;5136634;27;20043;-47
2021/09/11 04:08:40;;;;;;;3.40;3.10;;;22.10;78.50;;;;;;5136288;27;20067;-49
2021/09/11 04:11:06;;;;;;;3.22;2.92;;;22.10;78.50;;;;;;5136180;27;20126;-47
2021/09/11 04:13:33;;;;;;;3.38;3.08;;;22.10;78.50;;;;;;5136517;27;20399;-51
2021/09/11 04:15:59;;;;;;;3.50;3.20;;;22.10;78.50;;;;;;5136697;27;20054;-51
2021/09/11 04:18:25;;;;;;;3.45;3.15;;;22.10;78.50;;;;;;5136067;27;20039;-50
2021/09/11 04:20:51;;;;;;;3.72;3.42;;;22.10;78.50;;;;;;5116625;27;20132;-51
2021/09/11 04:23:16;;;;;;;3.20;2.90;;;22.10;78.50;;;;;;5136293;27;20043;-47
2021/09/11 04:25:43;;;;;;;3.58;3.28;;;22.10;78.50;;;;;;5136591;27;20476;-50
2021/09/11 04:28:08;;;;;;;3.70;3.40;;;22.10;78.50;;;;;;5135185;27;20039;-48
2021/09/11 04:30:34;;;;;;;2.90;2.70;;;22.10;78.50;;;;;;5136231;27;20032;-51
2021/09/11 04:32:59;;;;;;;3.15;2.85;;;22.10;78.50;;;;;;5136094;27;20052;-51
2021/09/11 04:35:25;;;;;;;3.22;2.92;;;22.10;78.50;;;;;;5135794;27;20435;-50
2021/09/11 04:37:51;;;;;;;3.33;3.03;;;22.10;78.50;;;;;;5135979;27;20523;-46
2021/09/11 04:40:17;;;;;;;3.67;3.38;;;22.10;78.50;;;;;;5135854;27;20035;-49
2021/09/11 04:42:42;;;;;;;3.67;3.38;;;22.10;78.50;;;;;;5135594;27;20040;-48
2021/09/11 04:45:08;;;;;;;3.40;3.10;;;22.10;78.50;;;;;;5136319;27;20067;-51
2021/09/11 04:47:34;;;;;;;3.28;2.97;;;22.10;78.50;;;;;;5135672;27;20502;-49
2021/09/11 04:50:00;;;;;;;3.47;3.17;;;22.10;78.50;;;;;;5135587;27;20057;-46
2021/09/11 04:52:25;;;;;;;3.17;2.88;;;22.10;78.50;;;;;;5135110;27;20054;-46
2021/09/11 04:54:51;;;;;;;3.38;3.08;;;22.10;78.50;;;;;;5135758;27;20122;-47
2021/09/11 04:57:17;;;;;;;3.33;3.03;;;22.10;78.40;;;;;;5135354;27;20060;-44
2021/09/11 04:59:42;;;;;;;3.20;2.90;;;22.10;78.50;;;;;;5133777;27;20046;-43
2021/09/11 05:02:08;;;;;;;3.42;3.13;;;22.10;78.50;;;;;;5135077;27;20499;-44
2021/09/11 05:04:34;;;;;;;3.63;2.90;;;22.10;78.50;;;;;;5134361;27;20479;-46
2021/09/11 05:07:00;;;;;;;3.10;2.80;;;22.10;78.50;;;;;;5134235;27;20027;-47
2021/09/11 05:09:26;;;;;;;3.22;2.92;;;22.10;78.50;;;;;;5135020;27;20126;-49
2021/09/11 05:11:52;;;;;;;3.13;2.83;;;22.10;78.50;;;;;;5135307;27;20535;-47
2021/09/11 05:14:17;;;;;;;3.15;2.85;;;22.10;78.50;;;;;;5135335;27;20041;-49
2021/09/11 05:16:44;;;;;;;3.42;3.13;;;22.10;78.50;;;;;;5135995;27;20483;-47
2021/09/11 05:19:10;;;;;;;3.15;2.85;;;22.10;78.50;;;;;;5135050;27;20050;-47
2021/09/11 05:21:35;;;;;;;3.28;2.97;;;22.10;78.40;;;;;;5134241;27;20059;-46
2021/09/11 05:24:02;;;;;;;2.42;2.22;;;22.10;78.40;;;;;;5134007;27;20039;-49
2021/09/11 05:26:27;;;;;;;3.25;2.95;;;22.10;78.40;;;;;;5134252;27;20483;-46
2021/09/11 05:28:53;;;;;;;3.33;3.03;;;22.10;78.40;;;;;;5134350;27;20046;-47
2021/09/11 05:31:19;;;;;;;3.22;2.60;;;22.10;78.40;;;;;;5134805;27;20049;-51
2021/09/11 05:33:44;;;;;;;2.58;2.38;;;22.10;78.40;;;;;;5135219;27;20395;-49
2021/09/11 05:36:10;;;;;;;3.05;2.83;;;22.10;78.40;;;;;;5135362;27;20039;-51
2021/09/11 05:38:35;;;;;;;2.92;2.63;;;22.10;78.40;;;;;;5134448;27;20089;-47
2021/09/11 05:41:01;;;;;;;2.88;2.60;;;22.10;78.40;;;;;;5134965;27;20041;-52
2021/09/11 05:43:27;;;;;;;3.38;3.08;;;22.10;78.40;;;;;;5134293;27;20054;-50
2021/09/11 05:45:52;;;;;;;2.97;2.67;;;22.10;78.40;;;;;;5134917;27;20047;-48
2021/09/11 05:48:18;;;;;;;2.90;2.60;;;22.10;78.40;;;;;;5134441;27;20111;-50
2021/09/11 05:50:44;;;;;;;3.38;2.97;;;22.10;78.40;;;;;;5134717;27;20086;-46
2021/09/11 05:53:10;;;;;;;3.35;3.05;;;22.10;78.40;;;;;;5133792;27;20068;-46
2021/09/11 05:55:35;;;;;;;2.83;2.55;;;22.10;78.40;;;;;;5133941;27;20043;-49
2021/09/11 05:58:02;;;;;;;2.55;2.35;;;22.10;78.40;;;;;;5134754;27;20133;-47
2021/09/11 06:00:27;;;;;;;3.97;2.42;;;22.10;78.40;;;;;;5134561;27;20047;-48
2021/09/11 06:02:53;;;;;;;2.92;2.58;;;22.10;78.40;;;;;;5135058;27;20050;-49
2021/09/11 06:05:19;;;;;;;3.08;2.78;;;22.10;78.40;;;;;;5134951;27;20132;-43
2021/09/11 06:07:45;;;;;;;3.15;2.50;;;22.10;78.40;;;;;;5116338;27;20043;-48
2021/09/11 06:10:11;;;;;;;2.70;2.50;;;22.10;78.50;;;;;;5133753;27;20036;-47
2021/09/11 06:12:37;;;;;;;2.63;2.42;;;22.10;78.40;;;;;;5133972;27;20054;-51
2021/09/11 06:15:07;;;;;;;2.85;2.60;;;22.10;78.40;;;;;;5134195;27;20039;-48
2021/09/11 06:17:35;;;;;;;2.80;2.53;;;22.10;78.40;;;;;;5134471;27;20059;-49
2021/09/11 06:20:01;;;;;;;2.80;2.60;;;22.10;78.40;;;;;;5134305;27;20078;-50
2021/09/11 06:22:30;;;;;;;2.75;2.55;;;22.00;78.40;;;;;;5134509;27;20090;-48
2021/09/11 06:24:59;;;;;;;2.83;2.63;;;22.00;78.30;;;;;;5134237;27;20046;-47
2021/09/11 06:27:24;;;;;;;2.67;2.45;;;22.00;78.30;;;;;;5133672;27;20043;-50
2021/09/11 06:29:53;;;;;;;4.05;2.70;;;22.00;78.40;;;;;;5123597;27;20495;-50
2021/09/11 06:32:21;;;;;;;2.70;2.50;;;22.00;78.40;;;;;;5131976;27;20043;-51
2021/09/11 06:34:47;;;;;;;2.80;2.60;;;22.10;78.40;;;;;;5134177;27;20108;-47
2021/09/11 06:37:13;;;;;;;2.60;2.40;;;22.10;78.40;;;;;;5133916;27;20122;-48
2021/09/11 06:39:41;;;;;;;2.40;2.20;;;22.10;78.40;;;;;;5134009;27;20058;-45
2021/09/11 06:42:07;;;;;;;2.92;2.63;;;22.10;78.40;;;;;;5133073;27;20046;-43
2021/09/11 06:44:33;;;;;;;2.70;2.50;;;22.10;78.40;;;;;;5133674;27;20030;-49
2021/09/11 06:46:59;;;;;;;2.50;2.30;;;22.00;78.40;;;;;;5134078;27;20499;-50
2021/09/11 06:49:25;;;;;;;3.03;2.72;;;22.00;78.30;;;;;;5133466;27;20047;-45
2021/09/11 06:51:51;;;;;;;2.65;2.45;;;22.00;78.40;;;;;;5133021;27;20140;-47
2021/09/11 06:54:16;;;;;;;2.80;2.25;;;22.10;78.40;;;;;;5133777;27;20050;-51
2021/09/11 06:56:42;;;;;;;12.45;8.55;;;22.00;78.40;;;;;;5133802;27;20039;-50
2021/09/11 06:59:08;;;;;;;13.73;8.90;;;22.00;77.90;;;;;;5133163;27;20079;-52
2021/09/11 07:01:33;;;;;;;7.80;6.45;;;22.00;78.10;;;;;;5133098;27;20039;-50
2021/09/11 07:04:01;;;;;;;7.72;6.30;;;22.00;78.20;;;;;;5133549;27;20506;-52
2021/09/11 07:06:27;;;;;;;7.90;5.63;;;22.00;78.30;;;;;;5133549;27;20363;-50
2021/09/11 07:08:53;;;;;;;6.32;5.50;;;22.00;78.30;;;;;;5133372;27;20043;-50
2021/09/11 07:11:18;;;;;;;6.32;5.50;;;22.00;78.40;;;;;;5133230;27;20046;-48
2021/09/11 07:13:44;;;;;;;7.20;5.93;;;22.00;78.30;;;;;;5133243;27;20035;-51
2021/09/11 07:16:09;;;;;;;8.15;5.93;;;22.00;78.30;;;;;;5133377;27;20046;-51
2021/09/11 07:18:35;;;;;;;7.00;5.95;;;22.00;78.40;;;;;;5133851;27;20398;-52
2021/09/11 07:21:02;;;;;;;7.63;5.85;;;22.00;78.40;;;;;;5133306;27;20139;-50
2021/09/11 07:23:28;;;;;;;6.90;5.97;;;22.00;78.40;;;;;;5132446;27;20533;-52
2021/09/11 07:25:54;;;;;;;7.85;5.65;;;22.00;78.30;;;;;;5133314;27;20067;-49
2021/09/11 07:28:19;;;;;;;6.65;5.95;;;22.00;78.40;;;;;;5133501;28;20479;-52
2021/09/11 07:30:45;;;;;;;6.22;5.00;;;22.00;78.30;;;;;;5133395;28;20383;-51
2021/09/11 07:33:11;;;;;;;6.60;5.03;;;22.00;78.40;;;;;;5133083;28;20082;-47
2021/09/11 07:35:36;;;;;;;6.10;5.05;;;22.00;78.40;;;;;;5133293;28;20494;-51
2021/09/11 07:38:02;;;;;;;5.95;5.10;;;22.00;78.40;;;;;;5133238;28;20035;-51
2021/09/11 07:40:28;;;;;;;5.75;5.13;;;22.00;78.30;;;;;;5133370;28;20532;-51
2021/09/11 07:42:54;;;;;;;6.38;5.05;;;22.00;78.40;;;;;;5133150;28;20433;-48
2021/09/11 07:45:19;;;;;;;6.07;4.72;;;22.00;78.30;;;;;;5113215;28;20051;-48
2021/09/11 07:47:45;;;;;;;5.72;4.28;;;22.00;78.30;;;;;;5133143;28;20499;-51
2021/09/11 07:50:11;;;;;;;6.70;5.05;;;22.00;78.40;;;;;;5133063;28;20170;-51
2021/09/11 07:52:38;;;;;;;5.95;4.55;;;22.00;78.40;;;;;;5114761;28;20050;-51
2021/09/11 07:55:05;;;;;;;5.18;4.63;;;22.00;78.40;;;;;;5132574;28;20051;-51
2021/09/11 07:57:30;;;;;;;5.80;4.32;;;22.00;78.40;;;;;;5133322;28;20046;-47
2021/09/11 07:59:56;;;;;;;5.05;4.55;;;22.00;78.40;;;;;;5132955;28;20035;-48
2021/09/11 08:02:22;;;;;;;5.75;4.80;;;22.00;78.30;;;;;;5132810;28;20047;-48
2021/09/11 08:04:48;;;;;;;6.85;4.70;;;22.00;78.40;;;;;;5132754;28;20075;-48
2021/09/11 08:07:14;;;;;;;5.60;4.40;;;22.00;78.30;;;;;;5133124;28;20046;-51
2021/09/11 08:09:39;;;;;;;5.28;4.78;;;22.00;78.30;;;;;;5133141;28;20062;-50
2021/09/11 08:12:05;;;;;;;5.07;4.40;;;22.00;78.30;;;;;;5132761;28;20096;-49
2021/09/11 08:14:31;;;;;;;4.85;4.00;;;22.00;78.30;;;;;;5133250;28;20040;-49
2021/09/11 08:16:57;;;;;;;4.30;3.90;;;22.00;78.40;;;;;;5132869;28;20130;-51
2021/09/11 08:19:22;;;;;;;5.10;4.20;;;22.00;78.40;;;;;;5132729;28;20115;-50
2021/09/11 08:21:48;;;;;;;4.53;4.10;;;22.00;78.40;;;;;;5132546;28;20051;-52
2021/09/11 08:24:14;;;;;;;4.95;4.10;;;22.00;78.40;;;;;;5132805;28;20043;-51
2021/09/11 08:26:39;;;;;;;5.50;4.18;;;22.00;78.40;;;;;;5132636;28;20475;-51
2021/09/11 08:29:05;;;;;;;5.45;4.60;;;22.00;78.40;;;;;;5132623;28;20479;-50
2021/09/11 08:31:31;;;;;;;4.57;4.18;;;22.00;78.40;;;;;;5133085;28;20069;-49
2021/09/11 08:33:57;;;;;;;4.68;4.15;;;22.00;78.40;;;;;;5133018;27;20027;-53
2021/09/11 08:36:22;;;;;;;4.40;3.83;;;22.00;78.40;;;;;;5136651;27;20503;-51
2021/09/11 08:38:49;;;;;;;4.57;4.00;;;22.00;78.40;;;;;;5136393;27;20368;-50
2021/09/11 08:41:15;;;;;;;4.20;3.80;;;22.00;78.40;;;;;;5136094;27;20189;-51
2021/09/11 08:43:40;;;;;;;4.63;4.22;;;22.00;78.30;;;;;;5135839;27;20079;-48
2021/09/11 08:46:06;;;;;;;4.20;3.78;;;22.00;78.40;;;;;;5136333;27;20035;-51
2021/09/11 08:48:32;;;;;;;4.15;3.75;;;22.00;78.40;;;;;;5136212;27;20411;-51
2021/09/11 08:50:59;;;;;;;3.80;3.40;;;22.00;78.40;;;;;;5136197;27;20129;-47
2021/09/11 08:53:25;;;;;;;4.88;4.10;;;22.10;78.40;;;;;;5136387;27;20054;-49
2021/09/11 08:55:51;;;;;;;3.78;3.47;;;22.00;78.40;;;;;;5136102;27;20031;-52
2021/09/11 08:58:21;;;;;;;4.72;3.80;;;22.00;78.40;;;;;;5135913;27;20482;-51
2021/09/11 09:00:52;;;;;;;4.47;4.03;;;22.00;78.40;;;;;;5136107;27;20032;-48
2021/09/11 09:03:42;;;;;;;4.03;3.63;;;22.00;78.40;;;;;;5135812;27;20042;-50
2021/09/11 09:06:13;;;;;;;4.57;3.92;;;22.00;78.40;;;;;;5135892;27;20126;-50
2021/09/11 09:08:40;;;;;;;4.28;3.47;;;22.00;78.40;;;;;;5136174;27;20391;-52
2021/09/11 09:11:24;;;;;;;4.00;3.60;;;21.90;78.30;;;;;;5135847;27;20078;-48
2021/09/11 09:13:51;;;;;;;3.97;3.50;;;22.00;78.50;;;;;;5135759;27;20043;-47
2021/09/11 09:16:18;;;;;;;4.38;3.40;;;22.00;78.40;;;;;;5135763;27;20108;-49
2021/09/11 09:18:43;;;;;;;4.28;3.63;;;22.00;78.40;;;;;;5135652;27;20035;-48
2021/09/11 09:21:24;;;;;;;3.97;3.38;;;22.00;78.40;;;;;;5135188;27;20054;-49
2021/09/11 09:23:58;;;;;;;4.28;3.70;;;22.00;78.50;;;;;;5135781;27;20458;-47
2021/09/11 09:26:25;;;;;;;4.43;3.87;;;22.00;78.40;;;;;;5135452;27;20054;-47
2021/09/11 09:29:10;;;;;;;4.18;3.78;;;22.00;78.40;;;;;;5135372;27;20414;-46
2021/09/11 09:31:37;;;;;;;3.83;3.53;;;22.00;78.50;;;;;;5135700;27;20489;-48
2021/09/11 09:34:03;;;;;;;4.15;3.55;;;22.00;78.40;;;;;;5135463;27;20422;-50
2021/09/11 09:36:38;;;;;;;4.03;3.63;;;22.00;78.50;;;;;;5135010;27;20039;-49
2021/09/11 09:39:07;;;;;;;4.43;3.70;;;22.00;78.40;;;;;;5135623;27;20042;-50
2021/09/11 09:41:53;;;;;;;3.90;3.45;;;22.00;78.40;;;;;;5135307;27;20616;-47
2021/09/11 09:44:20;;;;;;;4.00;3.58;;;22.00;78.50;;;;;;5135570;27;20043;-48
2021/09/11 09:46:49;;;;;;;3.47;3.17;;;22.00;78.40;;;;;;5135350;27;20043;-49
2021/09/11 09:49:24;;;;;;;3.63;3.33;;;22.00;78.40;;;;;;5134829;27;20035;-51
2021/09/11 09:51:50;;;;;;;3.63;3.33;;;22.00;78.50;;;;;;5134716;27;20402;-51
2021/09/11 09:54:18;;;;;;;4.10;3.70;;;22.00;78.40;;;;;;5134929;27;20277;-49
2021/09/11 09:56:44;;;;;;;3.60;3.30;;;22.00;78.50;;;;;;5135513;27;20092;-51
2021/09/11 09:59:11;;;;;;;4.20;3.80;;;22.00;78.40;;;;;;5134575;27;20535;-51
2021/09/11 10:01:37;;;;;;;3.85;3.30;;;22.00;78.40;;;;;;5135076;27;20108;-50
2021/09/11 10:04:21;;;;;;;4.40;3.35;;;22.00;78.50;;;;;;5116487;27;20067;-52
2021/09/11 10:06:55;;;;;;;3.78;3.33;;;22.00;78.40;;;;;;5134705;27;20054;-50
2021/09/11 10:09:27;;;;;;;3.55;3.22;;;22.00;78.50;;;;;;5134426;27;20043;-49
2021/09/11 10:11:54;;;;;;;3.58;3.28;;;22.00;78.40;;;;;;5134556;27;20473;-51
2021/09/11 10:14:22;;;;;;;3.83;3.35;;;22.00;78.50;;;;;;5135124;27;20043;-52
2021/09/11 10:17:03;;;;;;;3.72;3.42;;;22.00;78.50;;;;;;5134307;27;20042;-50
2021/09/11 10:19:31;;;;;;;4.13;3.75;;;22.00;78.50;;;;;;5134524;27;20066;-48
2021/09/11 10:22:24;;;;;;;3.80;3.40;;;22.00;78.40;;;;;;5115963;27;20122;-52
2021/09/11 10:25:04;;;;;;;3.47;3.17;;;22.00;78.50;;;;;;5134090;27;20558;-50
2021/09/11 10:27:38;;;;;;;3.50;3.20;;;22.00;78.50;;;;;;5134739;27;20040;-52
2021/09/11 10:30:16;;;;;;;3.83;3.43;;;22.00;78.50;;;;;;5134200;27;20123;-50
2021/09/11 10:32:46;;;;;;;3.78;3.38;;;22.00;78.50;;;;;;5134250;27;20042;-48
2021/09/11 10:35:21;;;;;;;3.85;3.55;;;22.00;78.50;;;;;;5104951;27;20047;-43
2021/09/11 10:37:57;;;;;;;4.07;3.67;;;22.00;78.50;;;;;;5129957;27;20402;-46
2021/09/11 10:40:29;;;;;;;3.67;3.38;;;22.00;78.50;;;;;;5132407;27;20039;-51
2021/09/11 10:43:06;;;;;;;4.10;3.72;;;22.00;78.50;;;;;;5133829;27;20074;-48
2021/09/11 10:45:44;;;;;;;4.15;3.83;;;22.00;78.50;;;;;;5114408;27;20087;-49
2021/09/11 10:48:56;;;;;;;3.55;3.25;;;22.00;78.50;;;;;;5132619;27;20039;-51
2021/09/11 10:51:36;;;;;;;4.60;4.20;;;22.00;78.50;;;;;;5132283;27;20134;-52
2021/09/11 10:54:22;;;;;;;4.05;3.75;;;22.00;78.50;;;;;;5133112;27;20077;-50
2021/09/11 10:57:13;;;;;;;3.95;3.55;;;22.00;78.50;;;;;;5132851;27;20047;-47
2021/09/11 10:59:44;;;;;;;9.90;8.25;;;22.00;78.50;;;;;;5016343;28;20053;-51
2021/09/11 11:02:23;;;;;;;13.43;9.05;;;22.00;78.70;;;;;;5049678;28;20074;-53
2021/09/11 11:04:49;;;;;;;9.18;7.20;;;22.00;78.80;;;;;;5049874;28;20049;-54
2021/09/11 11:07:17;;;;;;;8.30;7.47;;;22.00;78.90;;;;;;5049936;28;20334;-50
2021/09/11 11:09:48;;;;;;;9.48;7.90;;;22.00;79.00;;;;;;5049965;28;20048;-55
2021/09/11 11:12:19;;;;;;;9.35;7.55;;;22.00;79.00;;;;;;5049383;28;20116;-54
2021/09/11 11:14:45;;;;;;;9.43;7.78;;;22.00;79.00;;;;;;5050021;28;20037;-52
2021/09/11 11:17:15;;;;;;;9.27;7.22;;;22.00;79.00;;;;;;5049844;28;20052;-55
2021/09/11 11:19:50;;;;;;;7.60;6.68;;;22.00;79.00;;;;;;5048599;28;20060;-54
2021/09/11 11:22:18;;;;;;;6.93;6.25;;;22.00;79.00;;;;;;5049532;28;20497;-51
2021/09/11 11:24:47;;;;;;;5.95;5.35;;;22.00;79.00;;;;;;5049302;28;20052;-54
2021/09/11 11:27:17;;;;;;;6.25;5.35;;;22.00;79.00;;;;;;5049120;28;20048;-55
2021/09/11 11:29:48;;;;;;;6.38;5.57;;;22.00;79.00;;;;;;5049523;28;20053;-51
2021/09/11 11:32:14;;;;;;;5.63;5.13;;;22.00;78.90;;;;;;5049414;28;20505;-53
2021/09/11 11:34:40;;;;;;;6.15;5.55;;;22.00;78.90;;;;;;5049180;28;20448;-52
2021/09/11 11:37:10;;;;;;;6.40;5.80;;;22.00;78.90;;;;;;5093285;28;20056;-55
2021/09/11 11:39:37;;;;;;;6.35;5.75;;;22.00;78.90;;;;;;5112819;28;20047;-53
2021/09/11 11:42:07;;;;;;;6.50;5.90;;;22.00;78.90;;;;;;5112068;28;20083;-55
2021/09/11 11:44:53;;;;;;;7.80;5.47;;;22.00;79.50;;;;;;5112289;28;20122;-55
2021/09/11 11:47:44;;;;;;;9.68;7.93;;;22.00;79.20;;;;;;5111581;28;20548;-48
2021/09/11 11:50:20;;;;;;;8.07;7.13;;;22.00;79.10;;;;;;5111878;28;20035;-49
2021/09/11 11:52:52;;;;;;;7.90;7.10;;;22.00;79.10;;;;;;5093959;28;20074;-48
2021/09/11 11:55:21;;;;;;;7.22;6.55;;;22.00;79.20;;;;;;5112018;28;20051;-46
2021/09/11 11:57:46;;;;;;;8.85;6.88;;;22.00;79.20;;;;;;5111500;28;20046;-48
2021/09/11 12:00:13;;;;;;;6.70;6.10;;;22.00;79.20;;;;;;5112502;28;20126;-48
2021/09/11 12:02:46;;;;;;;8.30;7.00;;;22.00;79.30;;;;;;5112191;28;20040;-48
2021/09/11 12:05:12;;;;;;;7.57;6.78;;;22.00;79.30;;;;;;5112043;28;20582;-46
2021/09/11 12:07:37;;;;;;;8.57;6.63;;;22.00;79.30;;;;;;5112172;28;20122;-52
2021/09/11 12:10:04;;;;;;;8.32;6.75;;;22.00;79.30;;;;;;5116403;28;20039;-50
2021/09/11 12:12:46;;;;;;;7.55;6.80;;;22.00;79.30;;;;;;5116258;28;20044;-50
2021/09/11 12:15:15;;;;;;;6.85;6.07;;;22.00;79.20;;;;;;5113668;28;20051;-47
2021/09/11 12:17:55;;;;;;;6.70;6.03;;;22.00;79.20;;;;;;5113274;28;20035;-46
2021/09/11 12:20:22;;;;;;;6.63;6.03;;;22.00;79.20;;;;;;5109993;27;20112;-46
2021/09/11 12:23:13;;;;;;;6.13;5.63;;;22.00;79.20;;;;;;5115804;28;20043;-48
2021/09/11 12:25:52;;;;;;;7.00;6.30;;;22.00;79.20;;;;;;5116228;28;20043;-48
2021/09/11 12:29:06;;;;;;;5.53;4.88;;;22.00;79.20;;;;;;5116327;27;20039;-51
2021/09/11 12:31:33;;;;;;;6.15;5.55;;;22.10;79.30;;;;;;5090570;27;20055;-50
2021/09/11 12:34:04;;;;;;;5.97;5.30;;;22.00;79.20;;;;;;5136586;27;20039;-48
2021/09/11 12:36:40;;;;;;;6.75;5.30;;;22.00;79.20;;;;;;5136395;27;20039;-49
2021/09/11 12:39:29;;;;;;;5.80;5.20;;;22.00;79.20;;;;;;5135923;27;20050;-47
2021/09/11 12:41:57;;;;;;;6.03;5.45;;;22.10;79.20;;;;;;5136566;27;20047;-49
2021/09/11 12:44:26;;;;;;;5.55;5.05;;;22.00;79.20;;;;;;5135192;27;20122;-48
2021/09/11 12:47:03;;;;;;;5.28;4.78;;;22.00;79.10;;;;;;5116343;27;20151;-48
2021/09/11 12:49:29;;;;;;;6.22;4.68;;;22.00;79.10;;;;;;5135336;27;20043;-46